Time;durP1;ratioP1;P1;durP2;ratioP2;P2;SDS_P1;SDS_P2;PMS_P1;PMS_P2;Temp;Humidity;BMP_temperature;BMP_pressure;BME280_temperature;BME280_humidity;BME280_pressure;Samples;Min_cycle;Max_cycle;Signal;HPM_P1;HPM_P2
2021/07/22 00:00:00;;;;;;;10.23;5.18;;;25.60;59.80;;;;;;4282347;33;20083;-28
2021/07/22 00:02:27;;;;;;;10.68;3.30;;;25.20;60.80;;;;;;4270635;33;20087;-30
2021/07/22 00:04:54;;;;;;;7.53;3.17;;;24.90;61.70;;;;;;4258742;33;20080;-30
2021/07/22 00:07:20;;;;;;;8.27;4.03;;;24.70;62.50;;;;;;4282388;33;20121;-28
2021/07/22 00:09:47;;;;;;;5.93;3.25;;;24.60;62.60;;;;;;4282286;33;20164;-29
2021/07/22 00:12:13;;;;;;;9.85;3.15;;;24.60;63.00;;;;;;4282839;33;20064;-31
2021/07/22 00:14:40;;;;;;;4.90;3.00;;;24.60;62.60;;;;;;4283371;33;20655;-34
2021/07/22 00:17:07;;;;;;;3.60;2.85;;;24.60;62.60;;;;;;4285130;33;20154;-36
2021/07/22 00:19:34;;;;;;;7.53;2.72;;;24.60;62.70;;;;;;4296966;33;20078;-30
2021/07/22 00:22:00;;;;;;;7.15;4.30;;;24.60;63.00;;;;;;4296422;33;20106;-31
2021/07/22 00:24:27;;;;;;;7.80;3.97;;;24.60;63.20;;;;;;4284671;33;20110;-30
2021/07/22 00:26:54;;;;;;;7.75;2.75;;;24.60;64.10;;;;;;4321890;33;20309;-30
2021/07/22 00:29:20;;;;;;;8.68;5.07;;;24.60;64.50;;;;;;4326288;33;20086;-29
2021/07/22 00:31:47;;;;;;;4.57;2.90;;;24.60;64.50;;;;;;4301871;33;20127;-30
2021/07/22 00:34:13;;;;;;;3.50;1.75;;;24.60;64.80;;;;;;4313850;33;20075;-28
2021/07/22 00:36:40;;;;;;;8.10;4.45;;;24.50;65.00;;;;;;4313824;33;20078;-28
2021/07/22 00:39:06;;;;;;;8.80;4.37;;;24.60;65.10;;;;;;4313927;33;20564;-28
2021/07/22 00:41:39;;;;;;;5.87;4.35;;;24.60;64.80;;;;;;4313625;33;20179;-29
2021/07/22 00:44:06;;;;;;;8.10;5.68;;;24.60;64.80;;;;;;4325933;33;20173;-28
2021/07/22 00:46:32;;;;;;;3.90;1.25;;;24.60;65.00;;;;;;4325681;33;20067;-28
2021/07/22 00:48:59;;;;;;;7.82;2.53;;;24.60;64.90;;;;;;4325905;33;20089;-28
2021/07/22 00:51:25;;;;;;;15.75;8.30;;;24.60;64.80;;;;;;4325680;33;20071;-30
2021/07/22 00:53:51;;;;;;;12.82;4.75;;;24.40;64.60;;;;;;4325812;33;20075;-28
2021/07/22 00:56:18;;;;;;;12.50;8.77;;;24.30;64.60;;;;;;4313742;33;20148;-28
2021/07/22 00:58:44;;;;;;;16.50;7.93;;;24.20;64.20;;;;;;4339128;33;20506;-28
2021/07/22 01:01:12;;;;;;;6.95;3.55;;;24.00;64.40;;;;;;4344226;32;20078;-29
2021/07/22 01:03:39;;;;;;;11.18;5.10;;;23.80;64.80;;;;;;4346131;33;20152;-29
2021/07/22 01:06:05;;;;;;;16.05;7.37;;;23.70;66.00;;;;;;4345953;33;20058;-28
2021/07/22 01:08:32;;;;;;;9.82;5.28;;;23.50;65.60;;;;;;4332284;33;20063;-28
2021/07/22 01:10:58;;;;;;;13.25;8.15;;;23.40;66.00;;;;;;4346166;33;20086;-28
2021/07/22 01:13:25;;;;;;;12.18;5.70;;;23.20;66.40;;;;;;4345974;33;20490;-28
2021/07/22 01:15:51;;;;;;;6.62;4.60;;;23.10;66.90;;;;;;4345427;33;20061;-29
2021/07/22 01:18:17;;;;;;;11.05;5.25;;;23.00;67.10;;;;;;4331927;33;20135;-40
2021/07/22 01:20:44;;;;;;;8.73;4.22;;;22.90;67.30;;;;;;4345747;33;20089;-29
2021/07/22 01:23:10;;;;;;;11.20;7.82;;;23.00;67.40;;;;;;4345726;33;20071;-29
2021/07/22 01:25:36;;;;;;;14.40;9.63;;;23.00;67.00;;;;;;4345607;33;20062;-29
2021/07/22 01:28:03;;;;;;;9.60;7.43;;;23.10;66.70;;;;;;4331714;33;20511;-28
2021/07/22 01:30:29;;;;;;;5.50;4.15;;;23.20;66.60;;;;;;4345599;33;20070;-29
2021/07/22 01:32:56;;;;;;;17.10;5.18;;;23.20;66.10;;;;;;4345904;33;20150;-32
2021/07/22 01:35:22;;;;;;;14.70;8.77;;;23.30;65.80;;;;;;4345637;33;20159;-28
2021/07/22 01:37:52;;;;;;;16.70;10.43;;;23.30;65.50;;;;;;4345261;33;20080;-36
2021/07/22 01:40:18;;;;;;;10.70;4.32;;;23.30;65.70;;;;;;4345570;33;20083;-29
2021/07/22 01:42:45;;;;;;;14.95;7.45;;;23.30;65.90;;;;;;4331900;33;20149;-31
2021/07/22 01:45:12;;;;;;;13.32;4.85;;;23.30;66.00;;;;;;4345421;33;20102;-29
2021/07/22 01:47:39;;;;;;;21.02;9.32;;;23.30;65.90;;;;;;4331636;33;20474;-30
2021/07/22 01:50:06;;;;;;;15.75;8.13;;;23.40;65.90;;;;;;4345526;33;20061;-29
2021/07/22 01:52:32;;;;;;;31.05;14.70;;;23.40;65.70;;;;;;4345177;33;20067;-30
2021/07/22 01:54:58;;;;;;;19.92;8.93;;;23.40;65.60;;;;;;4345514;33;20086;-30
2021/07/22 01:57:25;;;;;;;15.65;8.30;;;23.40;65.40;;;;;;4345332;33;20086;-30
2021/07/22 01:59:52;;;;;;;16.87;8.25;;;23.50;65.30;;;;;;4345228;33;20178;-30
2021/07/22 02:02:19;;;;;;;15.10;5.57;;;23.50;65.30;;;;;;4345385;33;20074;-30
2021/07/22 02:04:45;;;;;;;22.42;13.45;;;23.50;65.20;;;;;;4345620;33;20066;-31
2021/07/22 02:07:12;;;;;;;14.23;7.45;;;23.60;64.90;;;;;;4344976;33;20134;-30
2021/07/22 02:09:38;;;;;;;19.85;10.63;;;23.50;65.10;;;;;;4344882;33;20152;-32
2021/07/22 02:12:05;;;;;;;16.27;8.73;;;23.50;65.30;;;;;;4312062;33;20083;-31
2021/07/22 02:14:32;;;;;;;18.98;11.50;;;23.60;65.30;;;;;;4313009;33;20606;-31
2021/07/22 02:16:58;;;;;;;13.75;6.97;;;23.60;65.20;;;;;;4313073;33;20095;-32
2021/07/22 02:19:24;;;;;;;17.15;8.93;;;23.60;65.00;;;;;;4313148;33;20084;-31
2021/07/22 02:21:51;;;;;;;20.35;11.00;;;23.60;65.10;;;;;;4283703;33;20065;-41
2021/07/22 02:24:17;;;;;;;10.57;5.57;;;23.70;65.10;;;;;;4283871;33;20101;-30
2021/07/22 02:26:44;;;;;;;23.33;9.98;;;23.70;65.30;;;;;;4283848;33;20106;-31
2021/07/22 02:29:10;;;;;;;38.97;15.50;;;23.80;65.00;;;;;;4284088;33;20080;-31
2021/07/22 02:31:36;;;;;;;15.75;6.82;;;23.90;65.00;;;;;;4283697;33;20155;-32
2021/07/22 02:34:03;;;;;;;20.17;8.77;;;24.00;64.80;;;;;;4283593;33;20147;-33
2021/07/22 02:36:31;;;;;;;12.75;3.83;;;24.10;64.30;;;;;;4283810;33;20152;-32
2021/07/22 02:38:59;;;;;;;17.85;9.07;;;24.00;63.80;;;;;;4283314;33;20442;-32
2021/07/22 02:41:29;;;;;;;11.73;7.20;;;24.00;63.60;;;;;;4283902;33;20101;-32
2021/07/22 02:43:57;;;;;;;4.05;3.10;;;24.10;63.80;;;;;;4283759;33;20142;-32
2021/07/22 02:46:23;;;;;;;13.93;8.75;;;24.20;63.80;;;;;;4283969;33;20164;-34
2021/07/22 02:48:49;;;;;;;14.90;9.45;;;24.20;63.30;;;;;;4286680;33;20064;-34
2021/07/22 02:51:16;;;;;;;21.05;13.18;;;24.20;63.20;;;;;;4298486;33;20064;-35
2021/07/22 02:53:42;;;;;;;20.45;13.23;;;24.30;63.60;;;;;;4298170;33;20126;-33
2021/07/22 02:56:09;;;;;;;20.15;12.60;;;24.40;63.30;;;;;;4298067;33;20543;-33
2021/07/22 02:58:35;;;;;;;24.90;13.13;;;24.60;62.90;;;;;;4316175;33;20070;-33
2021/07/22 03:01:01;;;;;;;17.83;13.85;;;24.70;62.70;;;;;;4343873;33;20065;-34
2021/07/22 03:03:28;;;;;;;25.12;16.75;;;24.90;62.90;;;;;;4330708;33;20181;-33
2021/07/22 03:05:54;;;;;;;26.67;16.25;;;25.10;62.00;;;;;;4344148;33;20070;-37
2021/07/22 03:08:21;;;;;;;21.55;16.30;;;25.20;61.00;;;;;;4344183;33;20078;-37
2021/07/22 03:10:49;;;;;;;26.33;17.35;;;25.30;61.00;;;;;;4343786;33;20527;-37
2021/07/22 03:13:15;;;;;;;19.10;15.43;;;25.50;60.60;;;;;;4344249;33;20066;-37
2021/07/22 03:15:41;;;;;;;20.60;15.35;;;25.50;59.70;;;;;;4343816;33;20162;-37
2021/07/22 03:18:08;;;;;;;22.62;16.40;;;25.70;59.90;;;;;;4343745;33;20050;-38
2021/07/22 03:20:34;;;;;;;25.23;18.30;;;25.80;59.70;;;;;;4344055;33;20196;-37
2021/07/22 03:23:03;;;;;;;22.98;15.82;;;25.90;59.10;;;;;;4343794;33;20078;-37
2021/07/22 03:25:30;;;;;;;27.90;16.02;;;26.00;59.10;;;;;;4343598;33;20524;-40
2021/07/22 03:27:59;;;;;;;22.37;16.30;;;26.00;58.60;;;;;;4343579;33;20065;-37
2021/07/22 03:30:27;;;;;;;26.42;17.35;;;26.10;58.50;;;;;;4342395;33;20491;-39
2021/07/22 03:32:54;;;;;;;23.62;14.25;;;26.20;58.10;;;;;;4343959;33;20054;-37
2021/07/22 03:35:20;;;;;;;23.83;10.88;;;26.30;58.30;;;;;;4343714;33;20090;-34
2021/07/22 03:37:46;;;;;;;24.35;14.85;;;26.40;57.80;;;;;;4343851;33;20070;-37
2021/07/22 03:40:13;;;;;;;22.92;15.68;;;26.40;57.30;;;;;;4296557;33;20083;-37
2021/07/22 03:42:40;;;;;;;26.60;16.35;;;26.50;57.00;;;;;;4296929;33;20110;-36
2021/07/22 03:45:06;;;;;;;27.73;14.40;;;26.60;57.00;;;;;;4297188;33;20209;-39
2021/07/22 03:47:33;;;;;;;22.67;15.95;;;26.70;56.60;;;;;;4297352;33;20087;-37
2021/07/22 03:49:59;;;;;;;22.90;13.65;;;26.70;56.60;;;;;;4297205;33;20068;-37
2021/07/22 03:52:26;;;;;;;16.45;12.80;;;26.80;56.60;;;;;;4285258;33;20118;-37
2021/07/22 03:54:52;;;;;;;15.85;11.82;;;26.90;56.10;;;;;;4297618;33;20052;-38
2021/07/22 03:57:19;;;;;;;18.25;12.77;;;27.00;56.00;;;;;;4289134;33;20074;-37
2021/07/22 03:59:45;;;;;;;21.85;11.73;;;27.10;55.30;;;;;;4311710;33;20079;-36
2021/07/22 04:02:11;;;;;;;18.17;11.65;;;27.10;55.10;;;;;;4311653;33;20082;-37
2021/07/22 04:04:38;;;;;;;16.27;11.12;;;27.20;55.20;;;;;;4311499;33;20075;-37
2021/07/22 04:07:05;;;;;;;18.05;10.15;;;27.20;55.10;;;;;;4311390;33;20072;-33
2021/07/22 04:09:31;;;;;;;15.27;11.45;;;27.20;55.20;;;;;;4311322;33;20188;-33
2021/07/22 04:11:57;;;;;;;19.37;11.30;;;27.20;55.10;;;;;;4337062;33;20555;-37
2021/07/22 04:14:24;;;;;;;22.00;10.90;;;27.20;54.90;;;;;;4343657;33;20067;-33
2021/07/22 04:16:50;;;;;;;18.80;11.05;;;27.20;55.00;;;;;;4343559;33;20144;-33
2021/07/22 04:19:17;;;;;;;26.40;12.20;;;27.20;55.30;;;;;;4343428;33;20452;-36
2021/07/22 04:21:44;;;;;;;17.52;9.68;;;27.20;54.90;;;;;;4343394;33;20070;-33
2021/07/22 04:24:10;;;;;;;14.27;8.90;;;27.30;54.70;;;;;;4342988;33;20159;-33
2021/07/22 04:26:37;;;;;;;18.48;10.18;;;27.40;53.80;;;;;;4343123;33;20070;-34
2021/07/22 04:29:05;;;;;;;21.77;9.68;;;27.30;53.70;;;;;;4343496;33;20059;-33
2021/07/22 04:31:32;;;;;;;19.40;9.85;;;27.30;54.00;;;;;;4329031;33;20066;-34
2021/07/22 04:33:58;;;;;;;24.27;10.32;;;27.30;54.20;;;;;;4329627;33;20094;-33
2021/07/22 04:36:25;;;;;;;24.90;11.38;;;27.20;54.10;;;;;;4342720;33;20059;-34
2021/07/22 04:38:51;;;;;;;17.27;8.55;;;27.20;54.30;;;;;;4343212;33;20066;-37
2021/07/22 04:41:18;;;;;;;25.70;9.15;;;27.30;54.20;;;;;;4342782;33;20091;-35
2021/07/22 04:43:44;;;;;;;16.17;10.65;;;27.40;53.80;;;;;;4343001;33;20074;-35
2021/07/22 04:46:11;;;;;;;21.37;8.60;;;27.50;53.30;;;;;;4343195;33;20081;-36
2021/07/22 04:48:37;;;;;;;24.55;11.35;;;27.40;53.30;;;;;;4342941;33;20058;-34
2021/07/22 04:51:05;;;;;;;17.67;10.07;;;27.30;54.00;;;;;;4342846;33;20066;-37
2021/07/22 04:53:34;;;;;;;15.45;9.32;;;27.10;53.90;;;;;;4328936;33;20066;-34
2021/07/22 04:56:01;;;;;;;23.55;10.55;;;27.10;54.60;;;;;;4343116;33;20066;-35
2021/07/22 04:58:27;;;;;;;19.85;10.65;;;27.00;55.10;;;;;;4342734;33;20086;-34
2021/07/22 05:00:54;;;;;;;17.67;9.57;;;26.90;55.60;;;;;;4342776;33;20073;-36
2021/07/22 05:03:20;;;;;;;21.77;10.73;;;26.90;55.60;;;;;;4342576;33;20662;-37
2021/07/22 05:05:46;;;;;;;20.90;10.30;;;26.80;55.50;;;;;;4342576;33;20531;-37
2021/07/22 05:08:13;;;;;;;16.20;9.38;;;26.80;56.00;;;;;;4342595;33;20070;-35
2021/07/22 05:10:39;;;;;;;16.17;10.40;;;26.90;55.80;;;;;;4342880;33;20071;-33
2021/07/22 05:13:06;;;;;;;19.35;9.52;;;26.90;55.50;;;;;;4342574;33;20067;-36
2021/07/22 05:15:33;;;;;;;15.45;8.68;;;27.00;55.40;;;;;;4343041;33;20074;-34
2021/07/22 05:17:59;;;;;;;11.30;8.43;;;27.00;55.10;;;;;;4343174;33;20067;-34
2021/07/22 05:20:26;;;;;;;14.10;9.35;;;27.00;54.90;;;;;;4342494;33;20444;-34
2021/07/22 05:22:52;;;;;;;14.40;9.75;;;27.00;55.00;;;;;;4342780;33;20192;-34
2021/07/22 05:25:19;;;;;;;16.35;9.52;;;27.10;55.00;;;;;;4342755;33;20066;-35
2021/07/22 05:27:45;;;;;;;17.45;10.40;;;27.20;54.70;;;;;;4342841;33;20075;-35
2021/07/22 05:30:12;;;;;;;14.77;8.63;;;27.20;54.50;;;;;;4342356;33;20078;-38
2021/07/22 05:32:39;;;;;;;14.48;8.10;;;27.20;54.80;;;;;;4342849;33;20081;-36
2021/07/22 05:35:06;;;;;;;9.75;7.15;;;27.20;54.60;;;;;;4329259;33;20055;-35
2021/07/22 05:37:33;;;;;;;10.63;6.57;;;27.30;54.60;;;;;;4342570;33;20558;-35
2021/07/22 05:39:59;;;;;;;7.57;4.60;;;27.40;54.60;;;;;;4343005;33;20040;-34
2021/07/22 05:42:26;;;;;;;9.23;5.60;;;27.40;54.00;;;;;;4342508;33;20083;-33
2021/07/22 05:44:52;;;;;;;7.62;4.35;;;27.50;53.50;;;;;;4342552;33;20351;-35
2021/07/22 05:47:19;;;;;;;6.10;4.25;;;27.60;52.80;;;;;;4342673;32;20158;-35
2021/07/22 05:49:45;;;;;;;14.68;4.85;;;27.70;52.70;;;;;;4345303;33;20091;-38
2021/07/22 05:52:11;;;;;;;6.35;4.43;;;27.80;52.90;;;;;;4345100;33;20072;-35
2021/07/22 05:54:38;;;;;;;9.93;5.00;;;28.00;53.30;;;;;;4345020;33;20077;-36
2021/07/22 05:57:04;;;;;;;8.65;4.95;;;28.20;52.20;;;;;;4344841;33;20074;-38
2021/07/22 05:59:31;;;;;;;8.15;4.45;;;28.30;51.50;;;;;;4318862;33;20106;-38
2021/07/22 06:01:57;;;;;;;6.30;2.75;;;28.50;51.10;;;;;;4331585;33;20065;-39
2021/07/22 06:04:24;;;;;;;4.87;2.35;;;28.60;50.50;;;;;;4344756;33;20094;-36
2021/07/22 06:06:50;;;;;;;10.23;4.80;;;28.70;49.80;;;;;;4344801;33;20062;-38
2021/07/22 06:09:16;;;;;;;9.48;4.20;;;28.70;50.10;;;;;;4344726;33;20496;-39
2021/07/22 06:11:43;;;;;;;8.52;3.30;;;28.80;49.80;;;;;;4344573;33;20086;-38
2021/07/22 06:14:09;;;;;;;7.93;3.70;;;28.90;49.40;;;;;;4331449;33;20070;-38
2021/07/22 06:16:36;;;;;;;5.55;3.78;;;29.00;49.00;;;;;;4331410;33;20066;-38
2021/07/22 06:19:02;;;;;;;7.70;3.62;;;29.10;48.40;;;;;;4344516;33;20156;-36
2021/07/22 06:21:29;;;;;;;3.40;2.00;;;29.20;48.60;;;;;;4343294;33;20066;-39
2021/07/22 06:23:55;;;;;;;1.70;1.05;;;29.40;48.50;;;;;;4298003;33;20107;-39
2021/07/22 06:26:21;;;;;;;4.47;3.50;;;29.50;47.80;;;;;;4298169;33;20072;-38
2021/07/22 06:28:48;;;;;;;5.80;2.92;;;29.40;47.80;;;;;;4286127;33;20067;-35
2021/07/22 06:31:14;;;;;;;7.93;3.70;;;29.20;47.50;;;;;;4297988;33;20060;-36
2021/07/22 06:33:41;;;;;;;6.32;4.03;;;29.00;47.80;;;;;;4286254;33;20078;-39
2021/07/22 06:36:07;;;;;;;5.30;1.87;;;28.90;48.30;;;;;;4298080;33;20616;-37
2021/07/22 06:38:34;;;;;;;4.82;2.03;;;28.90;48.00;;;;;;4298425;33;20152;-38
2021/07/22 06:41:00;;;;;;;5.70;3.45;;;28.60;48.00;;;;;;4274112;33;20437;-38
2021/07/22 06:43:29;;;;;;;4.78;3.72;;;28.40;48.50;;;;;;4297815;33;20180;-37
2021/07/22 06:45:56;;;;;;;7.03;3.58;;;28.40;48.90;;;;;;4286060;33;20544;-38
2021/07/22 06:48:22;;;;;;;4.12;1.52;;;28.40;48.80;;;;;;4297849;33;20141;-40
2021/07/22 06:50:49;;;;;;;1.85;1.27;;;28.20;48.40;;;;;;4286250;33;20061;-38
2021/07/22 06:53:15;;;;;;;5.00;2.37;;;27.90;48.70;;;;;;4297959;33;20146;-35
2021/07/22 06:55:42;;;;;;;4.60;1.62;;;27.60;49.50;;;;;;4297854;33;20162;-38
2021/07/22 06:58:09;;;;;;;3.72;2.53;;;27.30;49.80;;;;;;4306390;33;20570;-35
2021/07/22 07:00:36;;;;;;;4.10;3.45;;;27.10;50.60;;;;;;4321064;32;20228;-36
2021/07/22 07:03:07;;;;;;;4.90;3.08;;;27.00;50.90;;;;;;4345523;32;20047;-35
2021/07/22 07:05:34;;;;;;;3.42;2.00;;;26.80;50.80;;;;;;4359188;32;20162;-37
2021/07/22 07:08:00;;;;;;;2.78;1.90;;;26.40;51.50;;;;;;4345161;32;20136;-35
2021/07/22 07:10:27;;;;;;;4.90;3.20;;;26.20;52.60;;;;;;4358559;32;20546;-35
2021/07/22 07:12:53;;;;;;;3.15;2.33;;;25.80;52.80;;;;;;4326290;33;20440;-35
2021/07/22 07:15:20;;;;;;;5.22;2.85;;;25.60;53.60;;;;;;4326499;33;20595;-34
2021/07/22 07:17:48;;;;;;;4.50;1.12;;;25.40;53.90;;;;;;4326920;33;20500;-36
2021/07/22 07:20:15;;;;;;;2.00;0.98;;;25.30;54.70;;;;;;4302591;33;20083;-39
2021/07/22 07:22:41;;;;;;;4.10;2.67;;;25.40;55.10;;;;;;4326807;33;20180;-40
2021/07/22 07:25:09;;;;;;;3.45;1.48;;;25.50;54.70;;;;;;4326895;33;20179;-38
2021/07/22 07:27:36;;;;;;;1.50;1.05;;;25.70;54.40;;;;;;4314990;33;20117;-40
2021/07/22 07:30:03;;;;;;;1.52;1.15;;;25.90;53.50;;;;;;4314164;33;20523;-37
2021/07/22 07:32:30;;;;;;;3.03;1.48;;;26.10;52.70;;;;;;4326463;33;20738;-38
2021/07/22 07:34:56;;;;;;;6.12;3.50;;;26.10;52.10;;;;;;4326167;33;20653;-37
2021/07/22 07:37:23;;;;;;;5.45;2.53;;;26.20;52.10;;;;;;4311376;33;20082;-38
2021/07/22 07:39:49;;;;;;;14.77;4.37;;;26.30;51.80;;;;;;4311586;33;20563;-36
2021/07/22 07:42:16;;;;;;;5.93;2.92;;;26.50;51.80;;;;;;4299427;33;20079;-35
2021/07/22 07:44:42;;;;;;;5.45;1.80;;;26.50;50.10;;;;;;4336162;33;20059;-39
2021/07/22 07:47:09;;;;;;;3.28;2.17;;;26.30;50.30;;;;;;4341228;33;20232;-38
2021/07/22 07:49:35;;;;;;;3.67;1.27;;;26.20;50.50;;;;;;4341007;33;20473;-39
2021/07/22 07:52:02;;;;;;;2.83;1.62;;;26.10;50.80;;;;;;4311340;33;20114;-38
2021/07/22 07:54:28;;;;;;;4.45;3.00;;;26.00;50.90;;;;;;4311223;33;20080;-38
2021/07/22 07:56:55;;;;;;;2.17;1.37;;;25.80;50.90;;;;;;4311644;33;20075;-40
2021/07/22 07:59:21;;;;;;;3.78;1.42;;;25.60;51.30;;;;;;4299219;33;20397;-38
2021/07/22 08:01:49;;;;;;;4.07;2.87;;;25.70;51.50;;;;;;4299381;33;20075;-39
2021/07/22 08:04:15;;;;;;;3.58;1.67;;;25.60;50.90;;;;;;4311295;33;20083;-39
2021/07/22 08:06:42;;;;;;;11.65;3.62;;;25.50;51.50;;;;;;4311097;33;20524;-42
2021/07/22 08:09:08;;;;;;;4.05;1.48;;;25.60;51.40;;;;;;4311309;33;20719;-39
2021/07/22 08:11:35;;;;;;;3.70;1.42;;;25.70;51.30;;;;;;4325480;33;20090;-39
2021/07/22 08:14:01;;;;;;;3.62;2.37;;;26.00;50.90;;;;;;4313517;33;20106;-41
2021/07/22 08:16:28;;;;;;;4.62;1.85;;;26.10;50.00;;;;;;4325582;33;20129;-39
2021/07/22 08:18:55;;;;;;;5.78;2.65;;;26.20;50.20;;;;;;4325955;33;20067;-39
2021/07/22 08:21:21;;;;;;;1.70;1.23;;;26.20;50.10;;;;;;4326058;33;20551;-41
2021/07/22 08:23:49;;;;;;;2.05;1.45;;;26.30;50.20;;;;;;4325616;33;20079;-40
2021/07/22 08:26:16;;;;;;;6.07;2.78;;;26.40;49.00;;;;;;4325855;33;20137;-39
2021/07/22 08:28:42;;;;;;;3.55;2.70;;;26.50;48.80;;;;;;4328927;33;20528;-39
2021/07/22 08:31:09;;;;;;;3.45;2.05;;;26.40;48.50;;;;;;4342721;33;20055;-41
2021/07/22 08:33:35;;;;;;;3.55;2.33;;;26.40;48.50;;;;;;4343128;33;20119;-40
2021/07/22 08:36:01;;;;;;;4.95;1.45;;;26.30;49.00;;;;;;4342936;33;20074;-39
2021/07/22 08:38:29;;;;;;;2.05;0.80;;;26.30;49.00;;;;;;4329069;33;20643;-41
2021/07/22 08:40:56;;;;;;;2.65;1.05;;;26.40;49.30;;;;;;4329311;33;20553;-42
2021/07/22 08:43:23;;;;;;;3.08;1.45;;;26.50;48.50;;;;;;4316789;33;20130;-42
2021/07/22 08:45:50;;;;;;;1.48;1.17;;;26.60;48.40;;;;;;4317271;33;20550;-43
2021/07/22 08:48:16;;;;;;;3.30;1.45;;;26.80;48.20;;;;;;4342846;33;20504;-43
2021/07/22 08:50:45;;;;;;;3.75;1.60;;;26.90;47.50;;;;;;4329563;33;20063;-42
2021/07/22 08:53:11;;;;;;;1.80;1.20;;;26.90;47.50;;;;;;4317777;33;20078;-43
2021/07/22 08:55:38;;;;;;;3.72;1.80;;;26.90;47.70;;;;;;4304502;33;20090;-42
2021/07/22 08:58:04;;;;;;;6.20;1.05;;;26.80;47.60;;;;;;4302283;33;20165;-42
2021/07/22 09:00:31;;;;;;;1.35;1.00;;;26.70;48.00;;;;;;4314081;33;20060;-42
2021/07/22 09:02:57;;;;;;;1.77;1.10;;;26.60;48.00;;;;;;4302624;33;20055;-41
2021/07/22 09:05:28;;;;;;;4.70;1.62;;;26.50;48.80;;;;;;4314629;33;20512;-42
2021/07/22 09:07:54;;;;;;;1.45;0.70;;;26.30;49.00;;;;;;4314505;33;20071;-42
2021/07/22 09:10:21;;;;;;;1.33;0.60;;;26.20;49.60;;;;;;4334753;33;20086;-43
2021/07/22 09:12:52;;;;;;;7.72;1.65;;;26.00;50.00;;;;;;4342598;33;20138;-40
2021/07/22 09:15:31;;;;;;;2.12;1.37;;;25.90;50.70;;;;;;4342535;33;20599;-41
2021/07/22 09:17:58;;;;;;;4.82;0.88;;;25.90;50.50;;;;;;4317334;33;20105;-43
2021/07/22 09:20:33;;;;;;;1.25;0.88;;;26.00;50.70;;;;;;4342250;33;20468;-44
2021/07/22 09:23:01;;;;;;;4.53;1.20;;;26.10;50.30;;;;;;4331014;33;20079;-43
2021/07/22 09:25:57;;;;;;;4.35;1.17;;;26.20;49.70;;;;;;4345592;33;20108;-43
2021/07/22 09:28:26;;;;;;;4.22;2.03;;;26.20;49.40;;;;;;4341397;33;20093;-45
2021/07/22 09:30:57;;;;;;;4.62;1.83;;;26.40;49.30;;;;;;4345218;33;20071;-44
2021/07/22 09:33:41;;;;;;;7.32;2.03;;;26.40;48.50;;;;;;4345326;33;20079;-43
2021/07/22 09:36:29;;;;;;;4.05;1.80;;;26.30;49.10;;;;;;4331768;33;20086;-44
2021/07/22 09:39:25;;;;;;;2.10;1.17;;;26.10;49.30;;;;;;4337317;33;20152;-43
2021/07/22 09:42:02;;;;;;;3.53;2.28;;;25.90;49.80;;;;;;4345264;33;20065;-42
2021/07/22 09:44:39;;;;;;;1.92;0.98;;;25.80;50.00;;;;;;4344844;33;20118;-42
2021/07/22 09:47:10;;;;;;;5.18;2.10;;;25.90;50.50;;;;;;4331244;33;20126;-43
2021/07/22 09:49:38;;;;;;;3.22;1.30;;;25.70;50.70;;;;;;4286722;33;20106;-43
2021/07/22 09:52:17;;;;;;;2.42;1.52;;;25.50;51.70;;;;;;4298537;33;20102;-43
2021/07/22 09:54:43;;;;;;;3.42;1.37;;;25.70;51.70;;;;;;4298909;33;20157;-45
2021/07/22 09:57:15;;;;;;;4.60;0.85;;;25.70;51.40;;;;;;4298598;33;20068;-44
2021/07/22 09:59:44;;;;;;;3.30;0.47;;;25.70;51.60;;;;;;4286546;33;20531;-43
2021/07/22 10:02:22;;;;;;;1.58;1.02;;;25.80;51.60;;;;;;4298712;33;20461;-44
2021/07/22 10:04:56;;;;;;;3.92;1.60;;;25.90;51.20;;;;;;4287391;33;20521;-42
2021/07/22 10:07:23;;;;;;;1.48;0.70;;;26.00;50.90;;;;;;4298415;33;20074;-44
2021/07/22 10:09:52;;;;;;;2.90;0.85;;;26.00;50.80;;;;;;4298197;33;20099;-43
2021/07/22 10:12:20;;;;;;;1.60;1.00;;;26.00;50.10;;;;;;4268757;33;20076;-42
2021/07/22 10:14:55;;;;;;;2.90;0.80;;;26.10;49.40;;;;;;4257959;33;20085;-43
2021/07/22 10:17:36;;;;;;;1.33;0.70;;;26.40;49.40;;;;;;4258069;33;20069;-43
2021/07/22 10:20:07;;;;;;;4.12;1.85;;;26.50;49.10;;;;;;4269385;33;20584;-42
2021/07/22 10:22:34;;;;;;;3.05;2.10;;;26.30;48.60;;;;;;4269491;33;20674;-42
2021/07/22 10:25:01;;;;;;;2.42;0.73;;;26.20;49.40;;;;;;4257608;33;20069;-44
2021/07/22 10:27:27;;;;;;;2.33;1.30;;;26.20;49.80;;;;;;4297704;33;20600;-44
2021/07/22 10:29:54;;;;;;;2.42;1.20;;;26.20;49.40;;;;;;4312467;33;20586;-42
2021/07/22 10:32:22;;;;;;;5.37;1.17;;;26.10;49.40;;;;;;4300539;33;20065;-42
2021/07/22 10:34:49;;;;;;;3.35;0.93;;;26.00;49.70;;;;;;4300500;33;20086;-42
2021/07/22 10:37:17;;;;;;;3.92;1.05;;;26.00;50.10;;;;;;4288855;33;20063;-43
2021/07/22 10:40:07;;;;;;;8.55;2.30;;;26.10;50.10;;;;;;4312690;33;20447;-44
2021/07/22 10:42:47;;;;;;;3.33;0.95;;;26.10;49.60;;;;;;4318549;33;20551;-43
2021/07/22 10:45:26;;;;;;;3.35;1.20;;;26.30;49.60;;;;;;4330368;33;20151;-44
2021/07/22 10:48:05;;;;;;;1.45;0.73;;;26.40;49.10;;;;;;4344797;33;20095;-44
2021/07/22 10:50:38;;;;;;;0.65;0.50;;;26.50;48.90;;;;;;4330408;33;20148;-44
2021/07/22 10:53:05;;;;;;;1.45;0.90;;;26.50;48.90;;;;;;4344185;33;20066;-42
2021/07/22 10:55:40;;;;;;;2.60;1.30;;;26.60;48.90;;;;;;4330301;33;20078;-43
2021/07/22 10:58:30;;;;;;;1.35;1.02;;;26.60;48.90;;;;;;4344078;33;20512;-42
2021/07/22 11:00:57;;;;;;;1.60;0.88;;;26.50;47.30;;;;;;4344026;33;20050;-43
2021/07/22 11:03:35;;;;;;;1.00;0.50;;;26.30;47.60;;;;;;4343975;33;20077;-42
2021/07/22 11:06:06;;;;;;;0.93;0.60;;;26.00;48.80;;;;;;4344106;33;20600;-43
2021/07/22 11:08:36;;;;;;;1.23;0.70;;;26.00;49.50;;;;;;4329818;33;20095;-43
2021/07/22 11:11:06;;;;;;;2.25;0.82;;;25.80;50.20;;;;;;4330404;33;20229;-43
2021/07/22 11:16:25;;;;;;;1.37;0.70;;;25.80;50.60;;;;;;4343968;33;20176;-44
2021/07/22 11:18:59;;;;;;;1.98;0.93;;;26.00;50.40;;;;;;4285393;33;20560;-43
2021/07/22 11:21:35;;;;;;;1.42;1.12;;;26.00;50.10;;;;;;4297570;33;20658;-44
2021/07/22 11:24:15;;;;;;;6.37;1.10;;;26.10;49.40;;;;;;4297472;33;20068;-43
2021/07/22 11:26:42;;;;;;;1.10;0.73;;;26.00;49.50;;;;;;4286320;33;20845;-44
2021/07/22 11:29:10;;;;;;;2.45;0.90;;;26.10;49.80;;;;;;4297407;33;20544;-45
2021/07/22 11:31:49;;;;;;;1.12;0.80;;;26.20;49.70;;;;;;4297279;33;20170;-43
2021/07/22 11:34:25;;;;;;;0.85;0.55;;;26.10;49.20;;;;;;4309072;33;20063;-45
2021/07/22 11:36:57;;;;;;;1.05;0.73;;;26.20;49.00;;;;;;4297193;33;20620;-41
2021/07/22 11:39:44;;;;;;;1.08;0.70;;;26.20;48.20;;;;;;4285417;33;20066;-43
2021/07/22 11:42:13;;;;;;;1.02;0.65;;;26.30;47.50;;;;;;4296940;33;20064;-42
2021/07/22 11:44:40;;;;;;;1.12;0.80;;;26.40;47.30;;;;;;4296869;33;20091;-43
2021/07/22 11:47:16;;;;;;;2.45;1.10;;;26.50;47.40;;;;;;4296857;33;20071;-43
2021/07/22 11:49:42;;;;;;;1.10;0.60;;;26.50;47.40;;;;;;4296771;33;20071;-43
2021/07/22 11:52:09;;;;;;;0.90;0.60;;;26.60;47.60;;;;;;4284907;33;20087;-43
2021/07/22 11:54:36;;;;;;;0.90;0.70;;;26.70;47.60;;;;;;4285576;33;20056;-43
2021/07/22 11:57:02;;;;;;;2.65;0.40;;;26.60;47.70;;;;;;4333992;33;20094;-44
2021/07/22 11:59:30;;;;;;;3.50;0.50;;;26.70;48.10;;;;;;4329160;33;20078;-43
2021/07/22 12:01:58;;;;;;;1.15;0.50;;;26.80;47.80;;;;;;4329771;33;20152;-43
2021/07/22 12:04:34;;;;;;;1.40;0.88;;;27.00;47.50;;;;;;4313483;33;20114;-42
2021/07/22 12:07:03;;;;;;;0.80;0.50;;;27.00;46.70;;;;;;4326476;33;20136;-43
2021/07/22 12:09:30;;;;;;;2.47;0.70;;;27.00;46.60;;;;;;4314065;33;20091;-44
2021/07/22 12:12:00;;;;;;;2.03;1.17;;;26.90;46.30;;;;;;4313957;33;20087;-43
2021/07/22 12:14:29;;;;;;;3.95;0.80;;;26.90;46.60;;;;;;4314050;33;20063;-44
2021/07/22 12:17:01;;;;;;;2.58;1.42;;;26.90;47.10;;;;;;4314501;33;20089;-44
2021/07/22 12:19:29;;;;;;;1.30;0.70;;;27.00;47.40;;;;;;4313340;33;20638;-43
2021/07/22 12:22:27;;;;;;;1.90;0.80;;;27.20;47.20;;;;;;4325993;33;20125;-43
2021/07/22 12:25:03;;;;;;;5.47;1.83;;;27.20;47.00;;;;;;4296892;33;20090;-44
2021/07/22 12:27:38;;;;;;;3.05;1.10;;;27.20;46.90;;;;;;4296975;33;20063;-44
2021/07/22 12:30:07;;;;;;;3.30;1.02;;;27.40;46.50;;;;;;4285124;33;20079;-44
2021/07/22 12:32:34;;;;;;;2.37;0.93;;;27.50;46.00;;;;;;4272830;33;20165;-44
2021/07/22 12:35:00;;;;;;;5.47;1.58;;;27.30;46.10;;;;;;4296473;33;20060;-44
2021/07/22 12:37:59;;;;;;;1.35;0.70;;;27.20;46.70;;;;;;4284732;33;20150;-43
2021/07/22 12:40:44;;;;;;;1.62;0.68;;;27.10;46.70;;;;;;4296333;33;20143;-44
2021/07/22 12:43:19;;;;;;;3.17;0.68;;;27.10;47.10;;;;;;4272613;33;20082;-43
2021/07/22 12:45:47;;;;;;;1.73;0.52;;;27.10;47.60;;;;;;4285084;33;20060;-47
2021/07/22 12:48:13;;;;;;;1.65;1.10;;;27.10;47.70;;;;;;4296757;33;20153;-44